Time;durP1;ratioP1;P1;durP2;ratioP2;P2;SDS_P1;SDS_P2;PMS_P1;PMS_P2;Temp;Humidity;BMP_temperature;BMP_pressure;BME280_temperature;BME280_humidity;BME280_pressure;Samples;Min_cycle;Max_cycle;Signal;HPM_P1;HPM_P2
2022/11/03 00:01:04;;;;;;;2.53;1.90;;;;;;;19.67;60.42;97582.53;10557455;28;20043;-61
2022/11/03 00:06:24;;;;;;;2.30;1.70;;;;;;;19.65;60.33;97579.34;10563314;28;20052;-62
2022/11/03 00:11:45;;;;;;;2.40;1.52;;;;;;;19.64;60.39;97570.44;10553344;28;20043;-61
2022/11/03 00:17:04;;;;;;;2.50;1.70;;;;;;;19.63;60.46;97565.31;10584670;28;20112;-62
2022/11/03 00:22:23;;;;;;;3.03;1.70;;;;;;;19.61;60.47;97549.41;10598050;28;20035;-61
2022/11/03 00:27:42;;;;;;;2.72;1.65;;;;;;;19.63;60.43;97543.69;10579683;28;20491;-61
2022/11/03 00:33:02;;;;;;;1.70;1.58;;;;;;;19.62;60.55;97536.69;10582614;28;20544;-62
2022/11/03 00:38:21;;;;;;;2.10;1.65;;;;;;;19.60;60.50;97533.50;10583143;28;20055;-61
2022/11/03 00:43:40;;;;;;;2.40;1.70;;;;;;;19.59;60.56;97538.09;10579913;28;20043;-61
2022/11/03 00:49:00;;;;;;;2.83;1.70;;;;;;;19.59;60.38;97543.50;10574678;28;20035;-62
2022/11/03 00:54:20;;;;;;;2.15;1.67;;;;;;;19.59;60.38;97543.50;10591384;28;20035;-61
2022/11/03 00:59:39;;;;;;;2.55;1.67;;;;;;;19.59;60.38;97543.50;10543456;28;20496;-60
2022/11/03 01:10:37;;;;;;;2.20;1.73;;;;;;;19.54;60.47;97503.91;10548707;28;20060;-61
2022/11/03 01:16:00;;;;;;;2.00;1.60;;;;;;;19.54;60.47;97503.91;10557452;28;20117;-61
2022/11/03 01:21:19;;;;;;;3.83;1.83;;;;;;;19.55;60.47;97501.97;10529863;28;20048;-61
2022/11/03 01:26:39;;;;;;;1.73;1.52;;;;;;;19.52;60.54;97487.19;10541841;28;20040;-61
2022/11/03 01:31:59;;;;;;;1.88;1.65;;;;;;;19.51;60.38;97488.28;10541975;28;20109;-61
2022/11/03 01:37:18;;;;;;;2.05;1.58;;;;;;;19.51;60.49;97485.56;10542118;28;20048;-61
2022/11/03 01:42:38;;;;;;;2.35;1.50;;;;;;;19.51;60.49;97485.56;10552918;28;20110;-62
2022/11/03 01:47:57;;;;;;;1.85;1.63;;;;;;;19.51;60.49;97485.56;10542789;28;20044;-61
2022/11/03 01:53:17;;;;;;;1.90;1.70;;;;;;;19.51;60.49;97485.56;10544185;28;20059;-61
2022/11/03 01:58:38;;;;;;;1.95;1.60;;;;;;;-146.19;100.00;65364.44;10568803;28;20048;-60
2022/11/03 02:04:02;;;;;;;2.13;1.90;;;;;;;-146.19;100.00;65364.44;10549109;28;20090;-54
2022/11/03 02:09:21;;;;;;;2.70;1.70;;;;;;;-146.19;100.00;65364.44;10535946;28;20097;-54
2022/11/03 02:15:03;;;;;;;1.77;1.60;;;;;;;19.51;60.49;97485.56;10557893;28;20506;-54
2022/11/03 02:20:31;;;;;;;2.47;1.88;;;;;;;19.51;60.49;97485.56;10550174;28;20044;-54
2022/11/03 02:25:53;;;;;;;2.85;1.70;;;;;;;19.51;60.49;97485.56;10573018;28;20452;-54
2022/11/03 02:31:17;;;;;;;1.70;1.50;;;;;;;-146.19;100.00;65364.44;10579053;28;20077;-54
2022/11/03 02:36:45;;;;;;;1.85;1.70;;;;;;;-146.19;100.00;65364.44;10566203;28;20055;-55
2022/11/03 02:42:06;;;;;;;1.60;1.50;;;;;;;-146.19;100.00;65364.44;10574747;28;20498;-54
2022/11/03 02:47:27;;;;;;;1.38;1.23;;;;;;;-146.19;100.00;65364.44;10576600;28;20062;-54
2022/11/03 02:52:47;;;;;;;1.75;1.38;;;;;;;-146.19;100.00;65364.44;10568453;28;20540;-54
2022/11/03 02:58:23;;;;;;;1.48;1.33;;;;;;;-146.19;100.00;65364.44;10567834;28;20055;-53
2022/11/03 03:03:47;;;;;;;2.58;1.60;;;;;;;19.51;60.50;9224.38;10589596;28;20043;-54
2022/11/03 03:09:10;;;;;;;1.85;1.50;;;;;;;19.51;60.49;97485.56;10575279;28;20055;-54
2022/11/03 03:14:34;;;;;;;2.50;1.35;;;;;;;19.36;60.29;97372.47;10573488;28;20391;-54
2022/11/03 03:20:09;;;;;;;1.80;1.50;;;;;;;19.35;60.33;97374.38;10577158;28;20036;-54
2022/11/03 03:25:33;;;;;;;1.45;1.30;;;;;;;19.34;60.32;97366.56;10579686;28;20399;-54
2022/11/03 03:30:54;;;;;;;1.60;1.50;;;;;;;19.33;60.38;97357.69;10577560;28;20097;-54
2022/11/03 03:36:15;;;;;;;1.60;1.30;;;;;;;19.33;60.23;97354.19;10571945;28;20043;-54
2022/11/03 03:41:36;;;;;;;1.63;1.40;;;;;;;19.31;60.31;97351.78;10584473;28;20074;-54
2022/11/03 03:47:03;;;;;;;1.55;1.33;;;;;;;19.31;60.36;97365.28;10582495;28;20073;-54
2022/11/03 03:52:23;;;;;;;1.77;1.40;;;;;;;19.31;60.37;97364.50;10593266;28;20035;-54
2022/11/03 03:57:43;;;;;;;1.85;1.48;;;;;;;19.30;60.17;97369.09;10580391;28;20051;-54
2022/11/03 04:03:02;;;;;;;1.40;1.30;;;;;;;19.29;60.21;97345.09;10588392;28;20040;-54
2022/11/03 04:08:22;;;;;;;1.30;1.20;;;;;;;19.27;60.15;97331.91;10580182;28;20043;-54
2022/11/03 04:24:58;;;;;;;1.23;1.13;;;;;;;19.25;60.10;97347.63;10563183;28;20077;-54
2022/11/03 04:30:19;;;;;;;1.50;1.40;;;;;;;19.25;60.13;97349.50;10585022;28;20047;-55
2022/11/03 04:35:38;;;;;;;1.60;1.30;;;;;;;19.24;60.20;97342.53;10573747;28;20486;-54
2022/11/03 04:40:58;;;;;;;1.58;1.20;;;;;;;19.23;60.04;97338.22;10584586;28;20390;-54
2022/11/03 04:46:26;;;;;;;1.67;1.35;;;;;;;19.22;60.06;97328.53;10583451;28;20048;-54
2022/11/03 04:51:46;;;;;;;2.03;1.30;;;;;;;19.22;60.17;97328.53;10587282;28;20036;-54
2022/11/03 04:57:13;;;;;;;1.33;1.20;;;;;;;19.22;60.42;97325.81;10584431;28;20047;-54
2022/11/03 05:02:33;;;;;;;2.10;1.48;;;;;;;19.20;60.32;97309.94;10570960;28;20047;-54
2022/11/03 05:07:54;;;;;;;1.77;1.52;;;;;;;19.20;60.08;97311.84;10568960;28;20491;-54
2022/11/03 05:13:22;;;;;;;1.30;1.20;;;;;;;19.19;59.85;97308.34;10584417;28;20054;-54
2022/11/03 05:18:43;;;;;;;1.63;1.50;;;;;;;19.17;59.75;97305.94;10587507;28;20044;-54
2022/11/03 05:24:10;;;;;;;2.78;1.60;;;;;;;19.17;59.62;97288.94;10580565;28;20039;-54
2022/11/03 05:29:36;;;;;;;2.75;1.58;;;;;;;19.16;59.62;97288.13;10582846;28;20047;-54
2022/11/03 05:34:56;;;;;;;3.50;1.75;;;;;;;19.16;59.68;97277.34;10565565;28;20044;-54
2022/11/03 05:40:22;;;;;;;3.65;2.03;;;;;;;19.17;59.66;97276.25;10570950;28;20083;-54
2022/11/03 05:45:42;;;;;;;4.63;2.20;;;;;;;19.16;59.73;97277.34;10539214;28;20060;-54
2022/11/03 05:51:12;;;;;;;8.32;2.50;;;;;;;19.17;59.79;97267.34;10571936;28;20055;-54
2022/11/03 05:56:32;;;;;;;6.75;2.58;;;;;;;19.18;59.85;97258.13;10581098;28;20048;-55
2022/11/03 06:01:52;;;;;;;5.47;2.78;;;;;;;19.18;59.74;97258.13;10580056;28;20406;-54
2022/11/03 06:07:25;;;;;;;5.70;2.50;;;;;;;19.19;59.73;97258.91;10559866;28;20402;-54
2022/11/03 06:12:44;;;;;;;6.90;2.60;;;;;;;19.21;59.82;97260.22;10561604;28;20055;-54
2022/11/03 06:18:17;;;;;;;5.50;2.53;;;;;;;19.22;59.67;97253.69;10573451;28;20044;-54
2022/11/03 06:23:36;;;;;;;5.68;2.80;;;;;;;19.23;59.51;97254.47;10549381;28;20495;-54
2022/11/03 06:28:58;;;;;;;6.35;2.92;;;;;;;19.24;59.40;97250.69;10575182;28;20563;-54
2022/11/03 06:34:28;;;;;;;6.35;2.67;;;;;;;19.25;59.29;97247.69;10575356;28;20394;-55
2022/11/03 06:39:48;;;;;;;5.22;2.80;;;;;;;19.26;59.05;97259.28;10580289;28;20063;-54
2022/11/03 06:45:20;;;;;;;5.45;2.78;;;;;;;19.28;58.98;97252.44;10556656;28;20039;-54
2022/11/03 06:50:40;;;;;;;6.30;2.70;;;;;;;19.30;59.03;97255.63;10589694;28;20047;-54
2022/11/03 06:55:59;;;;;;;7.60;3.10;;;;;;;19.32;58.89;97256.13;10566839;28;20040;-54
2022/11/03 07:01:21;;;;;;;7.22;3.00;;;;;;;19.34;58.94;97250.41;10547892;28;20048;-54
2022/11/03 07:06:42;;;;;;;5.32;2.97;;;;;;;19.36;58.93;97242.78;10557218;28;20043;-54
2022/11/03 07:12:02;;;;;;;7.07;2.92;;;;;;;19.39;59.11;97233.28;10576657;28;20050;-54
2022/11/03 07:17:22;;;;;;;7.47;2.60;;;;;;;19.40;59.25;97238.34;10559920;28;20415;-55
2022/11/03 07:22:43;;;;;;;7.35;3.58;;;;;;;19.44;59.19;97242.00;10558830;28;20048;-54
2022/11/03 07:28:03;;;;;;;4.50;2.72;;;;;;;19.46;59.15;97236.31;10550301;28;20067;-55
2022/11/03 07:33:25;;;;;;;5.20;2.85;;;;;;;19.48;58.91;97240.31;10557208;28;20044;-54
2022/11/03 07:38:47;;;;;;;5.88;3.15;;;;;;;19.52;58.92;97224.25;10576841;28;20056;-55
2022/11/03 07:44:13;;;;;;;5.22;3.08;;;;;;;19.53;58.93;97205.03;10578113;28;20047;-54
2022/11/03 07:49:32;;;;;;;6.07;2.95;;;;;;;19.56;58.77;97195.47;10554136;28;20055;-55
2022/11/03 07:54:54;;;;;;;5.10;2.90;;;;;;;19.59;58.69;97188.66;10578846;28;20052;-54
2022/11/03 08:00:21;;;;;;;6.30;3.53;;;;;;;19.62;58.72;97177.22;10566522;28;20051;-54
2022/11/03 08:05:41;;;;;;;6.28;3.70;;;;;;;19.64;58.68;97167.69;10541077;28;20040;-54
2022/11/03 08:11:00;;;;;;;6.45;3.65;;;;;;;19.66;58.76;97154.66;10579266;28;20498;-55
2022/11/03 08:16:19;;;;;;;7.88;3.78;;;;;;;19.69;58.71;97132.38;10585035;28;20055;-54
2022/11/03 08:21:39;;;;;;;5.43;3.28;;;;;;;19.72;58.68;97133.72;10580162;28;20055;-54
2022/11/03 08:26:58;;;;;;;5.65;3.40;;;;;;;19.74;58.74;97126.09;10580927;28;20043;-55
2022/11/03 08:32:18;;;;;;;4.63;3.00;;;;;;;19.75;58.64;97119.56;10571432;28;20066;-55
2022/11/03 08:37:37;;;;;;;5.30;3.22;;;;;;;19.78;58.76;97110.00;10571054;28;20060;-54
2022/11/03 08:42:56;;;;;;;5.00;3.08;;;;;;;19.82;58.84;97098.25;10583968;28;20487;-54
2022/11/03 08:48:16;;;;;;;5.68;3.25;;;;;;;19.83;58.84;97099.81;10581986;28;20063;-54
2022/11/03 08:53:35;;;;;;;5.45;3.38;;;;;;;19.85;58.81;97097.59;10583818;28;20059;-54
2022/11/03 08:58:54;;;;;;;5.53;3.30;;;;;;;19.88;58.77;97085.38;10584257;28;20055;-54
2022/11/03 09:04:14;;;;;;;5.82;3.60;;;;;;;19.90;58.85;97075.81;10559027;28;20047;-55
2022/11/03 09:09:33;;;;;;;4.55;3.17;;;;;;;19.92;58.79;97065.47;10569008;28;20035;-55
2022/11/03 09:14:53;;;;;;;5.30;3.20;;;;;;;19.94;58.89;97055.13;10580513;28;20108;-54
2022/11/03 09:20:12;;;;;;;5.70;2.85;;;;;;;19.97;58.75;97047.50;10587511;28;20040;-54
2022/11/03 09:25:32;;;;;;;5.85;3.30;;;;;;;19.99;58.83;97037.94;10579802;28;20448;-54
2022/11/03 09:30:51;;;;;;;5.05;3.22;;;;;;;20.01;58.76;97034.91;10550458;28;20048;-54
2022/11/03 09:36:11;;;;;;;4.75;2.88;;;;;;;20.04;58.75;97037.00;10551996;28;20040;-54
2022/11/03 09:41:31;;;;;;;4.57;2.92;;;;;;;20.04;58.69;97013.44;10570832;28;20411;-54
2022/11/03 09:46:50;;;;;;;5.55;3.03;;;;;;;20.07;58.75;97006.59;10581543;28;20032;-54
2022/11/03 09:52:14;;;;;;;5.22;2.97;;;;;;;20.08;58.72;96995.44;10565629;28;20104;-55
2022/11/03 09:57:33;;;;;;;4.07;2.78;;;;;;;20.11;58.66;96975.06;10580074;28;20105;-54
2022/11/03 10:02:53;;;;;;;3.67;2.70;;;;;;;20.12;58.68;96968.56;10559913;28;20058;-54
2022/11/03 10:08:27;;;;;;;4.07;3.05;;;;;;;20.14;58.67;96955.50;10566911;28;20060;-54
2022/11/03 10:13:51;;;;;;;4.13;2.58;;;;;;;20.15;58.56;96949.00;10579116;28;20051;-54
2022/11/03 10:19:13;;;;;;;4.35;2.67;;;;;;;20.18;58.49;96921.28;10557695;28;20059;-55
2022/11/03 10:24:32;;;;;;;3.10;2.58;;;;;;;20.20;58.53;96910.94;10568948;28;20064;-54
2022/11/03 10:30:10;;;;;;;4.57;2.50;;;;;;;20.21;58.35;96909.81;10576884;28;20052;-54
2022/11/03 10:35:34;;;;;;;4.97;2.70;;;;;;;20.22;58.49;96899.78;10570363;28;20487;-55
2022/11/03 10:40:54;;;;;;;4.25;2.50;;;;;;;20.24;58.41;96890.22;10563954;27;20051;-54
2022/11/03 10:46:17;;;;;;;5.00;2.80;;;;;;;20.25;58.45;96882.91;10562836;28;20450;-55
2022/11/03 10:51:37;;;;;;;3.85;2.67;;;;;;;20.26;58.36;96855.50;10567922;28;20047;-54
2022/11/03 10:56:57;;;;;;;3.67;2.60;;;;;;;20.28;58.25;96844.38;10578916;28;20082;-54
2022/11/03 11:02:18;;;;;;;4.53;2.63;;;;;;;20.29;58.26;96832.44;10590792;28;20043;-55
2022/11/03 11:07:39;;;;;;;4.10;2.50;;;;;;;20.31;58.24;96814.75;10573852;28;20132;-54
2022/11/03 11:13:15;;;;;;;4.38;2.60;;;;;;;20.31;58.26;96803.16;10591785;28;20539;-54
2022/11/03 11:18:38;;;;;;;3.22;2.28;;;;;;;20.34;58.16;96797.84;10565481;28;20044;-54
2022/11/03 11:23:57;;;;;;;4.65;2.20;;;;;;;20.34;58.29;96784.31;10579426;28;20059;-55
2022/11/03 11:29:19;;;;;;;4.10;2.35;;;;;;;20.36;58.31;96784.00;10579447;28;20063;-55
2022/11/03 11:34:39;;;;;;;4.15;2.33;;;;;;;20.38;58.26;96770.16;10562879;28;20415;-55
2022/11/03 11:39:58;;;;;;;3.33;2.10;;;;;;;20.38;58.22;96762.81;10550355;28;20048;-56
2022/11/03 11:45:56;;;;;;;2.83;2.20;;;;;;;20.39;58.04;96740.06;10585775;28;20422;-55
2022/11/03 11:51:15;;;;;;;3.10;2.10;;;;;;;20.41;58.21;96734.31;10574417;28;20062;-54
2022/11/03 11:56:41;;;;;;;3.58;2.38;;;;;;;20.42;58.17;96722.38;10588564;28;20051;-54
2022/11/03 12:02:02;;;;;;;4.40;2.22;;;;;;;20.43;58.01;96715.84;10566190;28;20055;-54
2022/11/03 12:07:32;;;;;;;3.25;2.05;;;;;;;20.43;58.14;96696.91;10571801;28;20114;-54
2022/11/03 12:12:53;;;;;;;2.33;1.90;;;;;;;20.45;58.16;96691.94;10579597;28;20032;-55
2022/11/03 12:18:31;;;;;;;4.63;2.10;;;;;;;20.46;58.11;96680.78;10569044;28;20529;-54
2022/11/03 12:23:50;;;;;;;3.03;2.07;;;;;;;20.48;57.98;96672.31;10582082;28;20047;-55
2022/11/03 12:29:10;;;;;;;3.03;2.15;;;;;;;20.49;58.03;96666.59;10592346;28;20040;-55
2022/11/03 12:34:29;;;;;;;2.60;1.98;;;;;;;20.50;58.03;96653.84;10580684;28;20052;-55
2022/11/03 12:39:49;;;;;;;2.30;1.88;;;;;;;20.51;57.95;96642.69;10571166;28;20059;-54
2022/11/03 12:45:08;;;;;;;3.63;2.20;;;;;;;20.52;57.93;96633.47;10575296;28;20059;-54
2022/11/03 12:50:28;;;;;;;2.67;1.95;;;;;;;20.53;57.96;96631.53;10584153;28;20060;-55
2022/11/03 12:55:48;;;;;;;3.13;2.45;;;;;;;20.54;57.97;96627.69;10584353;28;20058;-54
2022/11/03 13:01:07;;;;;;;2.70;1.85;;;;;;;20.55;57.91;96626.56;10555797;28;20044;-55
2022/11/03 13:06:27;;;;;;;2.60;1.83;;;;;;;20.57;57.93;96629.75;10595739;28;20478;-54
2022/11/03 13:17:25;;;;;;;2.67;1.83;;;;;;;20.58;57.96;96623.22;10552692;28;20105;-54
2022/11/03 13:22:45;;;;;;;1.80;1.58;;;;;;;20.58;57.83;96598.84;10582260;28;20502;-54
2022/11/03 13:28:04;;;;;;;3.33;2.22;;;;;;;20.60;57.80;96612.88;10565467;28;20445;-55
2022/11/03 13:33:24;;;;;;;2.13;1.80;;;;;;;20.60;57.71;96601.22;10576135;28;20052;-54
2022/11/03 13:38:43;;;;;;;2.63;1.77;;;;;;;20.60;57.34;96583.09;10576739;28;20069;-54
2022/11/03 13:44:03;;;;;;;2.38;1.55;;;;;;;20.63;57.38;96587.03;10574643;28;20066;-55
2022/11/03 13:49:23;;;;;;;2.45;1.90;;;;;;;20.63;56.95;96579.69;10574043;28;20051;-55
2022/11/03 13:54:43;;;;;;;4.32;2.13;;;;;;;20.64;56.53;96592.13;10555522;28;20047;-57
2022/11/03 14:00:04;;;;;;;3.13;1.90;;;;;;;20.67;55.88;96586.03;10570365;28;20463;-55
2022/11/03 14:05:32;;;;;;;3.55;2.10;;;;;;;20.69;55.11;96577.56;10579970;28;20454;-55
2022/11/03 14:10:51;;;;;;;2.25;2.05;;;;;;;20.72;55.01;96577.69;10573846;28;20047;-55
2022/11/03 14:16:11;;;;;;;4.50;2.50;;;;;;;20.71;54.30;96570.69;10576060;28;20047;-55
2022/11/03 14:21:30;;;;;;;3.33;2.20;;;;;;;20.72;53.88;96556.03;10592525;28;20585;-55
2022/11/03 14:26:50;;;;;;;2.80;2.08;;;;;;;20.73;53.41;96552.19;10557061;28;20043;-55
2022/11/03 14:32:12;;;;;;;4.68;2.25;;;;;;;20.76;53.12;96547.22;10574057;28;20551;-55
2022/11/03 14:37:32;;;;;;;3.88;2.30;;;;;;;20.76;52.67;96553.44;10558372;28;20101;-55
2022/11/03 14:42:52;;;;;;;3.05;2.40;;;;;;;20.76;52.39;96545.34;10571763;28;20059;-55
2022/11/03 14:48:11;;;;;;;6.25;2.30;;;;;;;20.77;51.98;96529.88;10586884;28;20407;-55
2022/11/03 14:53:32;;;;;;;3.58;2.05;;;;;;;20.76;51.81;96529.09;10590089;28;20051;-55
2022/11/03 14:58:51;;;;;;;4.68;2.50;;;;;;;20.78;51.59;96534.16;10555042;28;20070;-55
2022/11/03 15:04:12;;;;;;;4.95;2.70;;;;;;;20.76;51.20;96512.84;10575476;28;20556;-55
2022/11/03 15:09:31;;;;;;;3.35;2.30;;;;;;;20.77;50.72;96508.22;10557225;28;20059;-55
2022/11/03 15:14:50;;;;;;;3.10;2.30;;;;;;;20.76;50.60;96493.91;10578566;28;20052;-55
2022/11/03 15:20:10;;;;;;;3.70;2.30;;;;;;;20.77;50.85;96483.84;10586589;28;20047;-54
2022/11/03 15:25:30;;;;;;;4.00;2.63;;;;;;;20.78;50.59;96466.47;10571955;28;20051;-55
2022/11/03 15:30:50;;;;;;;5.53;2.80;;;;;;;20.77;50.60;96464.91;10597947;28;20058;-55
2022/11/03 15:36:10;;;;;;;3.25;2.60;;;;;;;20.78;50.16;96455.63;10572960;28;20040;-55
2022/11/03 15:41:30;;;;;;;4.85;2.80;;;;;;;20.78;49.84;96439.38;10570958;28;20051;-55
2022/11/03 15:46:49;;;;;;;4.13;3.08;;;;;;;20.77;49.39;96430.50;10582875;28;20502;-55
2022/11/03 15:52:09;;;;;;;5.40;3.05;;;;;;;20.76;49.13;96439.75;10586085;28;20058;-55
2022/11/03 15:57:29;;;;;;;3.10;2.80;;;;;;;20.74;48.84;96417.66;10579059;28;20043;-55
2022/11/03 16:02:48;;;;;;;5.60;3.53;;;;;;;20.73;48.53;96419.53;10582178;28;20059;-55
2022/11/03 16:08:08;;;;;;;4.35;3.35;;;;;;;20.72;48.28;96407.16;10583634;28;20051;-55
2022/11/03 16:13:27;;;;;;;4.25;3.70;;;;;;;20.71;48.96;96377.72;10571198;28;20495;-54
2022/11/03 16:18:46;;;;;;;6.25;4.47;;;;;;;20.70;49.84;96376.94;10567320;28;20056;-53
2022/11/03 16:24:06;;;;;;;5.75;4.05;;;;;;;20.69;50.48;96375.34;10557806;28;20055;-54
2022/11/03 16:29:26;;;;;;;5.20;3.90;;;;;;;20.69;50.81;96361.81;10580075;28;20047;-55
2022/11/03 16:34:47;;;;;;;5.65;3.80;;;;;;;20.69;51.30;96361.81;10598291;28;20055;-54
2022/11/03 16:40:08;;;;;;;5.35;3.70;;;;;;;20.70;51.75;96373.44;10546851;28;20056;-55
2022/11/03 16:45:28;;;;;;;7.63;3.75;;;;;;;20.70;51.96;96357.22;10567194;28;20066;-54
2022/11/03 16:50:48;;;;;;;4.25;3.42;;;;;;;20.70;52.49;96349.09;10562526;28;20060;-55
2022/11/03 16:56:07;;;;;;;10.18;3.75;;;;;;;20.70;52.68;96343.69;10578404;28;20248;-55
2022/11/03 17:01:28;;;;;;;3.95;3.30;;;;;;;20.70;52.89;96336.34;10580588;28;20264;-54
2022/11/03 17:06:47;;;;;;;6.88;3.35;;;;;;;20.71;53.01;96337.13;10578928;28;20431;-54
2022/11/03 17:12:06;;;;;;;3.67;3.10;;;;;;;20.71;53.23;96321.66;10563411;28;20055;-53
2022/11/03 17:17:26;;;;;;;3.70;3.08;;;;;;;20.71;53.40;96318.94;10571523;28;20054;-53
2022/11/03 17:22:46;;;;;;;4.93;3.20;;;;;;;20.71;53.46;96316.25;10573016;28;20051;-53
2022/11/03 17:28:07;;;;;;;4.30;3.20;;;;;;;20.71;53.65;96307.34;10582013;28;20117;-53
2022/11/03 17:33:27;;;;;;;3.75;3.10;;;;;;;20.70;53.86;96298.44;10580964;28;20067;-53
2022/11/03 17:38:47;;;;;;;4.35;3.30;;;;;;;20.70;53.98;96286.84;10568670;28;20051;-53
2022/11/03 17:44:13;;;;;;;3.55;2.90;;;;;;;20.71;54.03;96293.81;10581064;28;20457;-53
2022/11/03 17:49:32;;;;;;;4.60;3.05;;;;;;;20.69;54.22;96286.03;10577894;28;20052;-51
2022/11/03 17:54:53;;;;;;;4.22;3.08;;;;;;;20.70;54.44;96276.78;10570000;28;20048;-53
2022/11/03 18:00:19;;;;;;;4.63;3.13;;;;;;;20.69;54.56;96253.53;10587055;28;20470;-53
2022/11/03 18:05:39;;;;;;;7.20;3.35;;;;;;;20.72;54.76;96238.56;10573163;28;20055;-52
2022/11/03 18:10:59;;;;;;;5.28;3.28;;;;;;;20.71;54.91;96213.38;10567811;28;20040;-54
2022/11/03 18:16:18;;;;;;;5.47;3.40;;;;;;;20.71;55.17;96210.69;10569260;28;20052;-55
2022/11/03 18:21:38;;;;;;;4.68;3.13;;;;;;;20.72;55.30;96204.16;10565167;28;20051;-57
2022/11/03 18:26:57;;;;;;;6.20;3.10;;;;;;;20.71;55.32;96191.72;10572860;28;20048;-58
2022/11/03 18:32:18;;;;;;;2.75;2.45;;;;;;;20.70;55.76;96182.06;10579710;28;20417;-58
2022/11/03 18:37:37;;;;;;;5.57;3.10;;;;;;;20.71;55.66;96197.16;10569554;28;20057;-55
2022/11/03 18:42:57;;;;;;;5.15;3.00;;;;;;;20.71;55.84;96180.13;10574168;28;20083;-56
2022/11/03 18:48:20;;;;;;;3.90;2.95;;;;;;;20.70;56.10;96165.81;10553820;28;20052;-54
2022/11/03 18:53:39;;;;;;;3.50;2.80;;;;;;;20.70;56.06;96151.50;10548581;28;20097;-54
2022/11/03 18:58:59;;;;;;;5.72;2.70;;;;;;;20.71;56.04;96147.66;10541503;28;20063;-55
2022/11/03 19:04:20;;;;;;;5.85;3.13;;;;;;;20.69;56.22;96137.16;10554868;28;20047;-54
2022/11/03 19:09:39;;;;;;;6.80;3.15;;;;;;;20.68;56.38;96130.19;10529929;28;20109;-51
2022/11/03 19:14:59;;;;;;;4.32;3.10;;;;;;;20.69;56.41;96122.84;10561793;28;20051;-53
2022/11/03 19:20:19;;;;;;;4.75;3.05;;;;;;;20.69;56.45;96112.03;10588160;28;20039;-54
2022/11/03 19:25:42;;;;;;;5.78;3.38;;;;;;;20.70;56.61;96097.38;10575116;28;20052;-54
2022/11/03 19:31:01;;;;;;;5.20;3.30;;;;;;;20.67;56.68;96079.88;10588428;28;20044;-53
2022/11/03 19:36:21;;;;;;;4.35;2.80;;;;;;;20.67;56.80;96071.00;10584346;28;20443;-55
2022/11/03 19:47:19;;;;;;;8.77;2.95;;;;;;;20.66;56.89;96061.28;10574574;28;20047;-54
2022/11/03 19:52:39;;;;;;;4.35;2.97;;;;;;;20.64;57.00;96040.00;10571382;28;20121;-53
2022/11/03 19:58:10;;;;;;;4.63;3.20;;;;;;;20.65;57.08;96019.91;10556033;28;20048;-55
2022/11/03 20:03:30;;;;;;;3.92;2.72;;;;;;;20.64;57.19;96039.19;10575167;28;20589;-54
2022/11/03 20:08:49;;;;;;;4.95;2.97;;;;;;;20.64;57.49;96034.59;10588152;28;20046;-54
2022/11/03 20:14:15;;;;;;;4.95;2.97;;;;;;;20.64;57.54;96022.97;10563823;28;20044;-53
2022/11/03 20:19:34;;;;;;;5.70;3.22;;;;;;;20.62;57.67;96028.75;10574207;28;20483;-53
2022/11/03 20:24:59;;;;;;;4.75;2.90;;;;;;;20.61;57.88;96019.03;10580159;28;20431;-53
2022/11/03 20:30:20;;;;;;;5.80;2.70;;;;;;;20.61;58.08;96019.03;10597081;28;20402;-53
2022/11/03 20:35:40;;;;;;;5.82;2.58;;;;;;;20.60;58.19;96009.38;10577500;28;20044;-55
2022/11/03 20:41:04;;;;;;;5.68;2.70;;;;;;;20.59;58.29;96010.50;10579227;28;20055;-54
2022/11/03 20:46:31;;;;;;;4.50;2.90;;;;;;;20.58;58.77;95999.97;10567651;28;20056;-55
2022/11/03 20:51:51;;;;;;;3.60;2.83;;;;;;;20.57;58.60;96012.72;10579493;28;20490;-54
2022/11/03 20:57:12;;;;;;;3.78;2.97;;;;;;;20.56;58.54;96000.31;10569546;28;20044;-54
2022/11/03 21:02:31;;;;;;;3.00;2.47;;;;;;;20.54;58.55;95998.00;10571463;28;20073;-54
2022/11/03 21:07:51;;;;;;;3.40;2.50;;;;;;;20.54;58.79;95989.06;10576293;28;20044;-54
2022/11/03 21:13:15;;;;;;;4.38;2.75;;;;;;;20.52;58.70;95994.03;10576937;28;20051;-54
2022/11/03 21:24:13;;;;;;;4.05;2.90;;;;;;;20.50;58.79;95967.38;10578196;28;20063;-54
2022/11/03 21:29:32;;;;;;;5.25;2.85;;;;;;;20.50;58.90;95970.06;10579667;28;20060;-55
2022/11/03 21:34:51;;;;;;;4.88;3.10;;;;;;;20.50;58.99;95967.38;10549146;28;20048;-54
2022/11/03 21:40:11;;;;;;;7.68;3.03;;;;;;;20.48;59.01;95956.09;10573674;28;20040;-54
2022/11/03 21:45:31;;;;;;;6.22;3.55;;;;;;;20.48;58.94;95956.09;10575306;28;20056;-54
2022/11/03 21:50:50;;;;;;;5.45;3.55;;;;;;;20.47;59.15;95954.53;10570390;28;20048;-54
2022/11/03 21:56:12;;;;;;;6.20;3.47;;;;;;;20.46;59.16;95942.13;10571098;28;20043;-54
2022/11/03 22:01:31;;;;;;;5.22;2.92;;;;;;;20.45;59.24;95924.31;10566786;28;20052;-54
2022/11/03 22:06:56;;;;;;;4.78;3.30;;;;;;;20.44;59.17;95928.16;10557015;28;20048;-55
2022/11/03 22:12:15;;;;;;;3.88;2.60;;;;;;;20.43;59.24;95925.81;10558229;28;20056;-55
2022/11/03 22:17:35;;;;;;;5.00;2.47;;;;;;;20.42;59.35;95925.00;10581198;28;20054;-54
2022/11/03 22:28:32;;;;;;;3.53;2.80;;;;;;;20.41;59.32;95914.56;10578315;28;20078;-55
2022/11/03 22:51:12;;;;;;;4.38;2.90;;;;;;;20.38;59.46;95893.63;10552379;28;20040;-54
2022/11/03 22:56:32;;;;;;;3.75;2.45;;;;;;;20.35;59.42;95893.19;10551432;28;20122;-54
2022/11/03 23:01:52;;;;;;;4.93;2.90;;;;;;;20.34;59.54;95883.50;10579120;28;20052;-54
2022/11/03 23:07:12;;;;;;;4.15;2.53;;;;;;;20.35;59.47;95887.78;10556246;28;20048;-54
2022/11/03 23:12:32;;;;;;;3.45;2.70;;;;;;;20.32;59.48;95872.22;10589984;28;20040;-54
2022/11/03 23:29:08;;;;;;;2.72;2.38;;;;;;;20.30;59.46;95869.09;10578636;28;20051;-54
2022/11/03 23:34:28;;;;;;;3.22;2.60;;;;;;;20.30;59.49;95855.56;10584153;28;20051;-54
2022/11/03 23:39:48;;;;;;;3.65;2.65;;;;;;;20.28;59.58;95849.72;10579415;28;20059;-55
2022/11/03 23:50:46;;;;;;;3.80;2.55;;;;;;;20.27;59.51;95820.34;10578575;28;20055;-55
